Time;durP1;ratioP1;P1;durP2;ratioP2;P2;SDS_P1;SDS_P2;PMS_P1;PMS_P2;Temp;Humidity;BMP_temperature;BMP_pressure;BME280_temperature;BME280_humidity;BME280_pressure;Samples;Min_cycle;Max_cycle;Signal;HPM_P1;HPM_P2
2023/09/08 00:02:08;;;;;;;;;8.33;8.00;;;;;29.60;44.30;101420.06;5117417;27;45427;-82
2023/09/08 00:04:34;;;;;;;;;9.33;7.67;;;;;29.53;44.52;101406.75;5116985;27;45395;-83
2023/09/08 00:06:59;;;;;;;;;8.00;8.00;;;;;29.66;44.05;101429.13;5117058;27;45236;-82
2023/09/08 00:09:25;;;;;;;;;8.33;7.33;;;;;29.51;44.22;101409.63;5098820;27;45316;-82
2023/09/08 00:11:50;;;;;;;;;9.00;9.00;;;;;29.65;44.53;101430.97;5115935;27;47408;-82
2023/09/08 00:14:15;;;;;;;;;8.67;8.00;;;;;29.69;44.44;101434.03;5099220;27;45521;-82
2023/09/08 00:16:42;;;;;;;;;4.67;4.67;;;;;29.67;44.31;101436.94;5115386;27;45367;-81
2023/09/08 00:19:12;;;;;;;;;6.00;6.00;;;;;29.69;44.53;101434.03;5125822;27;45301;-81
2023/09/08 00:21:38;;;;;;;;;8.67;8.67;;;;;29.70;44.49;101444.53;5130983;27;45459;-82
2023/09/08 00:24:04;;;;;;;;;8.67;8.67;;;;;29.68;44.29;101429.72;5100369;27;45342;-82
2023/09/08 00:26:30;;;;;;;;;7.00;7.00;;;;;29.68;44.53;101440.44;5116914;27;45440;-82
2023/09/08 00:28:55;;;;;;;;;7.00;6.33;;;;;29.68;44.36;101435.91;5117351;27;45432;-81
2023/09/08 00:31:20;;;;;;;;;8.00;8.00;;;;;29.67;44.46;101439.59;5117165;27;45926;-82
2023/09/08 00:33:46;;;;;;;;;7.00;7.00;;;;;29.63;44.47;101433.88;5097951;27;45937;-82
2023/09/08 00:36:11;;;;;;;;;8.00;8.00;;;;;29.67;44.47;101436.09;5117087;27;45379;-82
2023/09/08 00:38:37;;;;;;;;;9.33;8.00;;;;;29.73;44.28;101446.00;5117135;27;45284;-82
2023/09/08 00:41:04;;;;;;;;;7.00;7.00;;;;;29.72;44.48;101444.34;5116636;27;46614;-82
2023/09/08 00:43:29;;;;;;;;;7.67;7.67;;;;;29.70;44.46;101441.84;5117075;27;45275;-82
2023/09/08 00:45:56;;;;;;;;;9.67;8.00;;;;;29.73;44.35;101454.88;5115318;27;45402;-82
2023/09/08 00:48:21;;;;;;;;;9.67;9.67;;;;;29.73;44.33;101454.88;5116573;27;45570;-82
2023/09/08 00:50:47;;;;;;;;;10.00;8.00;;;;;29.72;44.37;101460.44;5114973;27;47236;-82
2023/09/08 00:53:13;;;;;;;;;7.67;7.67;;;;;29.75;44.49;101462.69;5116920;27;45310;-82
2023/09/08 00:55:40;;;;;;;;;6.33;6.33;;;;;29.69;44.74;101453.63;5098226;27;45307;-82
2023/09/08 00:58:06;;;;;;;;;7.00;7.00;;;;;29.75;44.60;101465.34;5115928;27;45294;-82
2023/09/08 01:00:32;;;;;;;;;7.00;7.00;;;;;29.67;44.69;101450.34;5115028;27;47476;-82
2023/09/08 01:02:58;;;;;;;;;7.00;7.00;;;;;29.74;44.38;101456.50;5116380;27;45245;-82
2023/09/08 01:05:24;;;;;;;;;9.00;9.00;;;;;29.73;44.64;101457.53;5116490;27;45281;-82
2023/09/08 01:07:52;;;;;;;;;9.33;8.00;;;;;29.70;44.40;101449.91;5098253;27;45311;-82
2023/09/08 01:10:17;;;;;;;;;8.00;8.00;;;;;29.69;44.43;101450.94;5115953;27;45550;-83
2023/09/08 01:12:43;;;;;;;;;8.00;8.00;;;;;29.72;44.69;101457.75;5114885;27;45601;-83
2023/09/08 01:15:08;;;;;;;;;7.33;7.33;;;;;29.57;44.71;101432.06;5116624;27;45387;-82
2023/09/08 01:17:34;;;;;;;;;10.67;9.33;;;;;29.71;44.50;101451.59;5097792;27;45623;-82
2023/09/08 01:20:21;;;;;;;;;7.67;7.67;;;;;29.76;44.44;101455.47;5097585;27;47115;-82
2023/09/08 01:23:16;;;;;;;;;8.33;6.33;;;;;29.77;44.18;101459.78;5097922;27;45500;-82
2023/09/08 01:26:04;;;;;;;;;6.67;5.67;;;;;29.77;44.39;101454.44;5116432;27;45432;-82
2023/09/08 01:28:31;;;;;;;;;7.33;7.33;;;;;29.72;44.52;101441.66;5118461;27;45297;-81
2023/09/08 01:30:56;;;;;;;;;6.67;6.00;;;;;29.71;44.62;101443.53;5119137;27;45484;-82
2023/09/08 01:33:23;;;;;;;;;7.33;7.33;;;;;29.72;44.51;101450.53;5119704;27;45543;-82
2023/09/08 01:35:49;;;;;;;;;6.00;6.00;;;;;29.69;44.43;101439.41;5101138;27;45404;-83
2023/09/08 01:38:14;;;;;;;;;9.00;6.67;;;;;29.72;44.45;101439.81;5119890;27;45572;-82
2023/09/08 01:40:40;;;;;;;;;6.67;6.67;;;;;29.73;44.03;101438.78;5100972;27;45803;-82
2023/09/08 01:43:05;;;;;;;;;8.00;7.67;;;;;29.74;44.43;101436.91;5119710;27;45706;-82
2023/09/08 01:45:31;;;;;;;;;7.67;7.67;;;;;29.76;44.25;101434.84;5119343;27;45314;-81
2023/09/08 01:47:56;;;;;;;;;5.00;5.00;;;;;29.77;44.53;101443.72;5119461;27;45688;-82
2023/09/08 01:50:24;;;;;;;;;7.67;7.00;;;;;29.78;44.68;101440.78;5119588;27;46308;-82
2023/09/08 01:52:49;;;;;;;;;8.33;8.00;;;;;29.71;44.58;101426.59;5119561;27;45400;-82
2023/09/08 01:55:16;;;;;;;;;8.00;7.00;;;;;29.74;44.72;101439.59;5117872;27;45241;-82
2023/09/08 01:57:42;;;;;;;;;9.00;9.00;;;;;29.74;44.55;101434.25;5118064;27;45536;-82
2023/09/08 02:00:11;;;;;;;;;6.00;6.00;;;;;29.78;44.58;101440.78;5117658;27;45683;-83
2023/09/08 02:02:39;;;;;;;;;8.67;7.00;;;;;29.76;44.88;101434.84;5101039;27;45361;-82
2023/09/08 02:05:05;;;;;;;;;5.67;5.67;;;;;29.71;44.62;101427.47;5119532;27;45529;-82
2023/09/08 02:07:31;;;;;;;;;6.00;6.00;;;;;29.74;44.62;101431.56;5118081;27;45438;-82
2023/09/08 02:09:56;;;;;;;;;8.00;8.00;;;;;29.72;44.76;101429.06;5118779;27;45643;-83
2023/09/08 02:12:21;;;;;;;;;7.00;7.00;;;;;29.66;44.75;101416.53;5119137;27;45352;-82
2023/09/08 02:14:47;;;;;;;;;7.00;7.00;;;;;29.76;44.53;101429.47;5117467;27;45417;-82
2023/09/08 02:17:13;;;;;;;;;7.33;6.00;;;;;29.70;44.61;101423.09;5100972;27;45530;-82
2023/09/08 02:19:40;;;;;;;;;6.67;6.67;;;;;29.72;44.23;101418.34;5119251;27;46352;-82
2023/09/08 02:22:05;;;;;;;;;8.33;7.33;;;;;29.72;44.78;101423.72;5083411;27;45365;-82
2023/09/08 02:24:30;;;;;;;;;6.00;6.00;;;;;29.37;44.67;101371.41;5119040;27;45385;-82
2023/09/08 02:26:56;;;;;;;;;8.00;8.00;;;;;29.71;44.50;101432.81;5118844;27;46144;-82
2023/09/08 02:29:22;;;;;;;;;8.00;8.00;;;;;29.72;45.13;101430.94;5118574;27;46038;-82
2023/09/08 02:31:47;;;;;;;;;7.00;7.00;;;;;29.74;44.69;101435.03;5118419;27;45304;-83
2023/09/08 02:34:13;;;;;;;;;8.67;7.00;;;;;29.73;44.78;101432.59;5100375;27;45414;-82
2023/09/08 02:36:38;;;;;;;;;6.33;5.67;;;;;29.73;44.70;101433.41;5117935;27;45492;-82
2023/09/08 02:39:04;;;;;;;;;7.67;6.33;;;;;29.75;44.91;101435.88;5099445;27;45554;-82
2023/09/08 02:41:30;;;;;;;;;6.67;6.00;;;;;29.66;44.87;101418.38;5118268;27;45622;-82
2023/09/08 02:43:55;;;;;;;;;6.33;6.33;;;;;29.75;44.89;101430.50;5118689;27;45472;-82
2023/09/08 02:46:20;;;;;;;;;10.00;8.33;;;;;29.72;44.63;101430.94;5117622;27;45234;-83
2023/09/08 02:48:46;;;;;;;;;6.33;6.33;;;;;29.77;44.89;101441.81;5099969;27;47203;-82
2023/09/08 02:51:12;;;;;;;;;8.67;7.00;;;;;29.73;45.20;101436.09;5118366;27;45331;-82
2023/09/08 02:53:37;;;;;;;;;7.00;7.00;;;;;29.69;44.61;101434.84;5117522;27;45313;-83
2023/09/08 02:56:05;;;;;;;;;6.00;6.00;;;;;29.78;44.75;101442.66;5117622;27;45330;-82
2023/09/08 02:58:33;;;;;;;;;7.00;7.00;;;;;29.77;44.71;101446.38;5117998;27;45938;-82
2023/09/08 03:01:09;;;;;;;;;6.00;6.00;;;;;29.69;44.70;101434.84;5117014;27;45299;-83
2023/09/08 03:03:35;;;;;;;;;6.00;5.67;;;;;29.76;44.47;101442.88;5117647;27;45446;-82
2023/09/08 03:06:03;;;;;;;;;6.00;6.00;;;;;29.74;44.61;101440.41;5118909;27;45484;-82
2023/09/08 03:08:28;;;;;;;;;6.33;6.33;;;;;29.75;44.81;101446.59;5117988;27;45354;-83
2023/09/08 03:10:56;;;;;;;;;9.00;8.00;;;;;29.76;44.54;101434.00;5117872;27;45399;-83
2023/09/08 03:13:21;;;;;;;;;7.00;6.00;;;;;29.73;44.68;101438.78;5117346;27;45282;-82
2023/09/08 03:15:47;;;;;;;;;7.67;7.67;;;;;29.79;44.71;101458.53;5116315;27;45507;-82
2023/09/08 03:18:12;;;;;;;;;7.00;5.67;;;;;29.73;44.54;101440.63;5117876;27;46505;-82
2023/09/08 03:20:37;;;;;;;;;6.00;6.00;;;;;29.80;44.07;101451.28;5099828;27;45252;-82
2023/09/08 03:23:03;;;;;;;;;8.00;6.33;;;;;29.71;44.46;101434.63;5099838;27;45441;-83
2023/09/08 03:25:28;;;;;;;;;7.00;7.00;;;;;29.79;44.52;101441.63;5099326;27;45412;-82
2023/09/08 03:27:54;;;;;;;;;6.67;6.00;;;;;29.77;44.59;101436.47;5099070;27;45669;-82
2023/09/08 03:30:19;;;;;;;;;6.33;6.33;;;;;29.74;44.65;101431.56;5099677;27;45305;-82
2023/09/08 03:32:44;;;;;;;;;5.00;5.00;;;;;29.78;44.62;101437.28;5117057;27;45359;-83
2023/09/08 03:35:10;;;;;;;;;6.67;6.33;;;;;29.69;44.59;101426.78;5116642;27;45282;-83
2023/09/08 03:37:36;;;;;;;;;7.33;7.00;;;;;29.77;44.64;101436.47;5117713;27;45274;-82
2023/09/08 03:40:01;;;;;;;;;7.67;6.67;;;;;29.79;44.82;101439.78;5117848;27;45488;-82
2023/09/08 03:42:26;;;;;;;;;6.00;6.00;;;;;29.78;44.75;101443.47;5095630;27;45333;-83
2023/09/08 03:44:52;;;;;;;;;5.33;5.33;;;;;29.76;44.91;101428.66;5095974;27;45530;-83
2023/09/08 03:47:17;;;;;;;;;6.00;6.00;;;;;29.82;44.46;101427.78;5096601;27;45394;-82
2023/09/08 03:49:42;;;;;;;;;5.67;5.67;;;;;29.74;44.72;101424.31;5096292;27;45304;-82
2023/09/08 03:52:08;;;;;;;;;7.67;7.67;;;;;29.69;45.07;101418.75;5096051;27;45338;-82
2023/09/08 03:54:33;;;;;;;;;4.67;4.67;;;;;29.74;44.54;101423.50;5096603;27;45572;-83
2023/09/08 03:56:58;;;;;;;;;6.00;6.00;;;;;29.72;44.60;101420.22;5096537;27;45715;-82
2023/09/08 03:59:24;;;;;;;;;7.67;6.00;;;;;29.79;44.68;101433.56;5096793;27;45499;-83
2023/09/08 04:01:49;;;;;;;;;5.33;5.33;;;;;29.72;44.83;101423.72;5096831;27;45490;-82
2023/09/08 04:04:14;;;;;;;;;5.00;5.00;;;;;29.75;44.47;101430.50;5096744;27;45437;-83
2023/09/08 04:06:41;;;;;;;;;6.67;6.33;;;;;29.81;44.72;101440.34;5095297;27;46582;-82
2023/09/08 04:09:06;;;;;;;;;8.33;6.00;;;;;29.71;44.87;101430.13;5078589;27;45426;-82
2023/09/08 04:11:31;;;;;;;;;5.67;5.67;;;;;29.81;44.72;101442.22;5096535;27;45272;-83
2023/09/08 04:13:57;;;;;;;;;6.67;6.00;;;;;29.75;44.86;101435.88;5078276;27;45551;-83
2023/09/08 04:16:22;;;;;;;;;5.00;5.00;;;;;29.75;44.86;101427.81;5095386;27;48501;-82
2023/09/08 04:18:48;;;;;;;;;6.00;6.00;;;;;29.77;44.69;101427.63;5096616;27;45411;-82
2023/09/08 04:21:13;;;;;;;;;7.00;7.00;;;;;29.80;44.83;101437.88;5096573;27;45228;-82
2023/09/08 04:23:39;;;;;;;;;6.33;6.33;;;;;29.78;44.80;101437.28;5095914;27;45400;-83
2023/09/08 04:26:04;;;;;;;;;6.67;6.67;;;;;29.78;44.82;101445.34;5094862;27;46286;-82
2023/09/08 04:28:29;;;;;;;;;8.00;6.67;;;;;29.78;44.94;101440.78;5096575;27;45843;-82
2023/09/08 04:30:55;;;;;;;;;7.33;6.00;;;;;29.71;44.70;101432.81;5096643;27;45427;-83
2023/09/08 04:33:23;;;;;;;;;8.33;6.67;;;;;29.77;44.77;101443.72;5111750;27;45576;-82
2023/09/08 04:35:48;;;;;;;;;5.00;4.67;;;;;29.76;44.71;101439.38;5116747;27;45430;-83
2023/09/08 04:38:14;;;;;;;;;4.00;4.00;;;;;29.76;44.73;101442.88;5116822;27;45308;-82
2023/09/08 04:40:45;;;;;;;;;5.50;5.50;;;;;29.80;45.00;101446.75;5115812;27;45358;-82
2023/09/08 04:43:10;;;;;;;;;6.00;6.00;;;;;29.77;44.69;101435.66;5094862;27;45711;-82
2023/09/08 04:45:36;;;;;;;;;7.00;6.67;;;;;29.80;44.73;101443.25;5077468;27;47264;-82
2023/09/08 04:48:02;;;;;;;;;7.00;7.00;;;;;29.71;44.92;101423.91;5096261;27;45375;-82
2023/09/08 04:50:27;;;;;;;;;6.67;6.67;;;;;29.74;44.95;101437.72;5077104;27;45348;-82
2023/09/08 04:52:53;;;;;;;;;5.00;5.00;;;;;29.73;44.42;101433.41;5094968;27;45604;-82
2023/09/08 04:55:19;;;;;;;;;6.00;6.00;;;;;29.77;44.73;101449.06;5077256;27;45610;-83
2023/09/08 04:57:44;;;;;;;;;3.00;3.00;;;;;29.73;44.83;101437.94;5095724;27;45373;-82
2023/09/08 05:00:11;;;;;;;;;4.00;4.00;;;;;29.76;44.99;101442.06;5096264;27;45330;-82
2023/09/08 05:02:37;;;;;;;;;5.67;5.67;;;;;29.77;44.73;101443.72;5097010;27;45289;-82
2023/09/08 05:05:02;;;;;;;;;6.00;6.00;;;;;29.78;44.58;101442.66;5080959;27;46757;-82
2023/09/08 05:07:28;;;;;;;;;6.33;6.33;;;;;29.71;44.79;101431.97;5081031;27;45298;-82
2023/09/08 05:09:55;;;;;;;;;5.33;5.33;;;;;29.73;45.13;101432.59;5099016;27;45307;-83
2023/09/08 05:12:20;;;;;;;;;3.67;3.67;;;;;29.76;44.70;101442.06;5098650;27;45394;-82
2023/09/08 05:14:45;;;;;;;;;5.33;5.33;;;;;29.71;45.07;101432.81;5099586;27;47199;-82
2023/09/08 05:17:11;;;;;;;;;9.00;7.00;;;;;29.66;44.97;101421.06;5098231;27;45242;-82
2023/09/08 05:19:37;;;;;;;;;5.00;5.00;;;;;29.82;44.72;101446.56;5081341;27;45386;-82
2023/09/08 05:22:05;;;;;;;;;5.00;5.00;;;;;29.79;44.05;101445.13;5099530;27;45506;-83
2023/09/08 05:24:30;;;;;;;;;5.67;5.00;;;;;29.81;44.73;101448.41;5098915;27;46333;-82
2023/09/08 05:26:55;;;;;;;;;5.67;5.67;;;;;29.82;44.68;101443.88;5099451;27;45282;-82
2023/09/08 05:29:21;;;;;;;;;5.67;5.67;;;;;29.62;44.69;101418.81;5099537;27;45360;-82
2023/09/08 05:31:46;;;;;;;;;7.33;7.00;;;;;29.76;45.20;101450.09;5100277;27;45537;-83
2023/09/08 05:34:12;;;;;;;;;9.00;8.67;;;;;29.72;42.48;101447.84;5119642;27;46275;-83
2023/09/08 05:36:38;;;;;;;;;7.33;7.33;;;;;29.45;42.25;101436.47;5119909;27;45390;-83
2023/09/08 05:39:04;;;;;;;;;10.33;9.33;;;;;29.31;42.18;101443.78;5119838;27;45335;-80
2023/09/08 05:41:30;;;;;;;;;8.00;8.00;;;;;29.10;42.44;101446.59;5123191;27;45474;-82
2023/09/08 05:43:55;;;;;;;;;8.00;7.00;;;;;28.92;42.38;101452.63;5127748;27;46365;-81
2023/09/08 05:46:20;;;;;;;;;9.00;8.00;;;;;28.72;42.02;101457.03;5116727;27;45594;-79
2023/09/08 05:48:47;;;;;;;;;7.00;7.00;;;;;28.58;42.35;101447.38;5118129;27;45629;-80
2023/09/08 05:51:13;;;;;;;;;8.67;7.67;;;;;28.46;42.09;101444.53;5113822;27;45566;-82
2023/09/08 05:53:39;;;;;;;;;10.00;10.00;;;;;28.42;42.74;101448.66;5114978;27;45563;-82
2023/09/08 05:56:05;;;;;;;;;7.67;7.67;;;;;28.39;42.69;101466.75;5106178;27;45303;-79
2023/09/08 05:58:30;;;;;;;;;9.67;7.67;;;;;28.25;42.74;101467.81;5118712;27;45443;-82
2023/09/08 06:00:56;;;;;;;;;8.00;7.00;;;;;28.15;42.67;101478.94;5119143;27;45352;-81
2023/09/08 06:03:21;;;;;;;;;9.33;8.00;;;;;28.05;42.88;101466.00;5117836;27;46389;-81
2023/09/08 06:05:46;;;;;;;;;11.67;8.00;;;;;27.89;43.62;101451.16;5118477;27;45383;-80
2023/09/08 06:08:12;;;;;;;;;10.00;9.00;;;;;27.89;43.46;101460.03;5118423;27;45398;-81
2023/09/08 06:10:38;;;;;;;;;7.00;7.00;;;;;27.93;43.58;101474.63;5118651;27;45403;-81
2023/09/08 06:13:03;;;;;;;;;10.33;10.33;;;;;27.82;43.63;101459.19;5119938;27;46714;-80
2023/09/08 06:15:29;;;;;;;;;9.67;9.67;;;;;27.81;43.20;101463.72;5117544;27;45341;-82
2023/09/08 06:17:54;;;;;;;;;9.00;9.00;;;;;27.85;43.43;101472.13;5118673;27;45498;-81
2023/09/08 06:20:19;;;;;;;;;10.00;10.00;;;;;27.83;44.22;101475.03;5118521;27;45532;-81
2023/09/08 06:22:45;;;;;;;;;10.00;8.67;;;;;27.84;43.79;101482.00;5117815;27;45403;-80
2023/09/08 06:25:11;;;;;;;;;7.00;6.67;;;;;27.81;43.78;101471.75;5117376;27;45487;-81
2023/09/08 06:27:36;;;;;;;;;10.00;8.67;;;;;27.83;43.94;101484.91;5118639;27;45363;-83
2023/09/08 06:30:02;;;;;;;;;9.67;8.00;;;;;27.86;43.92;101481.81;5099854;27;45382;-84
2023/09/08 06:32:27;;;;;;;;;9.00;9.00;;;;;27.77;43.70;101456.25;5118059;27;45782;-84
2023/09/08 06:34:53;;;;;;;;;9.00;9.00;;;;;27.98;43.50;101484.69;5118173;27;45404;-83
2023/09/08 06:37:18;;;;;;;;;8.33;8.33;;;;;28.11;43.96;101491.06;5118303;27;45546;-83
2023/09/08 06:39:43;;;;;;;;;10.67;8.67;;;;;28.19;43.72;101485.50;5118788;27;45391;-83
2023/09/08 06:42:09;;;;;;;;;7.67;7.00;;;;;28.19;43.63;101474.81;5115954;27;45387;-83
2023/09/08 06:44:34;;;;;;;;;12.00;6.33;;;;;28.35;43.63;101486.09;5117678;27;45351;-83
2023/09/08 06:46:59;;;;;;;;;9.67;9.67;;;;;28.34;43.25;101473.78;5110720;27;46564;-81
2023/09/08 06:49:25;;;;;;;;;11.00;9.33;;;;;28.43;43.49;101477.03;5098087;27;45443;-81
2023/09/08 06:51:50;;;;;;;;;13.00;8.33;;;;;28.52;43.44;101479.31;5096672;27;47531;-82
2023/09/08 06:54:16;;;;;;;;;9.00;7.33;;;;;28.52;43.58;101473.16;5098305;27;45516;-81
2023/09/08 06:56:41;;;;;;;;;9.33;9.33;;;;;28.67;43.13;101490.81;5109623;27;45493;-81
2023/09/08 06:59:06;;;;;;;;;7.67;7.67;;;;;28.71;43.28;101490.19;5118887;27;45535;-80
2023/09/08 07:01:32;;;;;;;;;9.67;9.67;;;;;28.73;43.16;101484.59;5117849;27;45258;-80
2023/09/08 07:03:57;;;;;;;;;6.67;6.00;;;;;28.77;43.44;101485.00;5118789;27;45338;-81
2023/09/08 07:06:23;;;;;;;;;8.00;8.00;;;;;28.87;43.62;101492.59;5118129;27;45292;-81
2023/09/08 07:08:50;;;;;;;;;8.33;8.33;;;;;28.92;43.58;101496.28;5119112;27;45483;-79
2023/09/08 07:11:15;;;;;;;;;9.33;9.33;;;;;28.82;43.62;101471.81;5121815;27;45398;-81
2023/09/08 07:13:41;;;;;;;;;7.67;7.67;;;;;28.90;43.50;101479.63;5118200;27;45390;-81
2023/09/08 07:16:06;;;;;;;;;10.67;9.00;;;;;28.99;43.32;101493.56;5118298;27;45358;-80
2023/09/08 07:18:35;;;;;;;;;10.00;10.00;;;;;28.95;43.33;101485.16;5118164;27;45379;-80
2023/09/08 07:21:01;;;;;;;;;7.33;7.33;;;;;29.00;43.23;101489.03;5117798;27;45428;-80
2023/09/08 07:23:26;;;;;;;;;8.00;8.00;;;;;29.10;43.29;101491.28;5117923;27;45466;-80
2023/09/08 07:25:51;;;;;;;;;8.33;8.33;;;;;29.09;43.61;101484.28;5118010;27;45325;-80
2023/09/08 07:28:17;;;;;;;;;8.00;8.00;;;;;29.17;43.50;101494.78;5118173;27;45457;-79
2023/09/08 07:30:43;;;;;;;;;6.67;6.67;;;;;29.19;43.60;101495.38;5117641;27;45367;-80
2023/09/08 07:33:08;;;;;;;;;6.33;6.33;;;;;29.22;43.37;101494.13;5117895;27;45338;-80
2023/09/08 07:35:38;;;;;;;;;8.00;6.00;;;;;29.15;43.51;101488.78;5117382;27;45380;-80
2023/09/08 07:38:04;;;;;;;;;10.67;7.33;;;;;29.17;43.57;101495.59;5098384;27;45569;-80
2023/09/08 07:40:29;;;;;;;;;7.67;7.67;;;;;29.09;43.67;101469.06;5117517;27;46179;-80
2023/09/08 07:42:55;;;;;;;;;8.33;7.33;;;;;29.26;43.44;101493.50;5117506;27;45443;-80
2023/09/08 07:45:20;;;;;;;;;9.00;8.00;;;;;29.27;43.95;101497.00;5117649;27;45300;-80
2023/09/08 07:47:45;;;;;;;;;6.67;6.67;;;;;29.29;43.64;101494.91;5117509;27;46409;-80
2023/09/08 07:50:26;;;;;;;;;5.33;5.33;;;;;29.29;43.50;101494.91;5098362;27;48396;-80
2023/09/08 07:52:54;;;;;;;;;7.33;7.00;;;;;29.32;43.54;101496.34;5117849;27;45581;-79
2023/09/08 07:55:22;;;;;;;;;10.00;8.33;;;;;29.29;43.38;101487.72;5098923;27;45280;-81
2023/09/08 07:57:49;;;;;;;;;8.00;8.00;;;;;29.31;43.54;101492.00;5117492;27;45413;-79
2023/09/08 08:00:15;;;;;;;;;7.67;7.33;;;;;29.29;43.65;101486.88;5116963;27;45392;-79
2023/09/08 08:03:00;;;;;;;;;6.00;6.00;;;;;29.37;43.64;101499.22;5116790;27;45356;-80
2023/09/08 08:05:26;;;;;;;;;10.00;9.33;;;;;29.35;43.75;101494.06;5114448;27;45428;-79
2023/09/08 08:07:51;;;;;;;;;9.00;9.00;;;;;29.32;43.68;101486.47;5117145;27;45494;-79
2023/09/08 08:10:18;;;;;;;;;10.67;9.33;;;;;29.28;43.84;101477.19;5117204;27;45692;-78
2023/09/08 08:12:43;;;;;;;;;8.00;7.33;;;;;29.43;43.74;101495.69;5098657;27;46315;-78
2023/09/08 08:15:10;;;;;;;;;10.00;8.33;;;;;29.44;44.00;101493.78;5117170;27;45419;-79
2023/09/08 08:17:37;;;;;;;;;8.00;8.00;;;;;29.43;43.91;101486.81;5115503;27;45397;-78
2023/09/08 08:20:08;;;;;;;;;8.00;8.00;;;;;29.45;43.66;101495.44;5116762;27;45700;-79
2023/09/08 08:22:34;;;;;;;;;7.67;7.67;;;;;29.44;43.84;101483.91;5116978;27;45368;-79
2023/09/08 08:24:59;;;;;;;;;9.00;9.00;;;;;29.42;43.86;101485.97;5116875;27;45247;-78
2023/09/08 08:27:25;;;;;;;;;6.67;5.33;;;;;29.49;43.81;101494.78;5116934;27;45270;-78
2023/09/08 08:29:51;;;;;;;;;8.67;7.00;;;;;29.54;43.76;101499.50;5116919;27;46332;-79
2023/09/08 08:32:16;;;;;;;;;8.00;8.00;;;;;29.51;44.04;101492.72;5113078;27;45585;-79
2023/09/08 08:34:41;;;;;;;;;10.67;8.67;;;;;29.58;44.05;101502.59;5116398;27;45476;-79
2023/09/08 08:37:07;;;;;;;;;7.67;7.00;;;;;29.51;44.25;101497.25;5115869;27;45321;-79
2023/09/08 08:39:32;;;;;;;;;7.67;7.67;;;;;29.54;43.68;101494.16;5116447;27;46517;-79
2023/09/08 08:42:05;;;;;;;;;7.33;7.33;;;;;29.54;43.94;101488.78;5097975;27;45407;-79
2023/09/08 08:44:32;;;;;;;;;8.33;8.33;;;;;29.56;43.89;101496.63;5116530;27;45400;-79
2023/09/08 08:46:58;;;;;;;;;8.33;7.00;;;;;29.51;43.78;101495.41;5116372;27;45312;-78
2023/09/08 08:49:24;;;;;;;;;2.00;2.00;;;;;29.59;44.24;101501.53;5116497;27;46110;-79
2023/09/08 08:51:51;;;;;;;;;7.00;7.00;;;;;29.50;44.17;101487.59;5116549;27;45309;-79
2023/09/08 08:54:17;;;;;;;;;7.67;6.67;;;;;29.56;44.16;101499.31;5098163;27;45276;-79
2023/09/08 08:56:42;;;;;;;;;7.33;5.00;;;;;29.55;44.10;101490.44;5116395;27;45427;-79
2023/09/08 08:59:10;;;;;;;;;8.00;8.00;;;;;29.61;44.24;101502.16;5116345;27;46524;-80
2023/09/08 09:01:36;;;;;;;;;9.33;7.67;;;;;29.59;44.28;101505.03;5115717;27;45387;-79
2023/09/08 09:04:05;;;;;;;;;5.67;5.67;;;;;29.62;43.95;101506.47;5116129;27;45376;-79
2023/09/08 09:06:31;;;;;;;;;3.33;2.33;;;;;29.61;43.80;101507.53;5116589;27;45493;-79
2023/09/08 09:08:56;;;;;;;;;6.67;6.67;;;;;29.61;43.88;101502.97;5116072;27;45508;-79
2023/09/08 09:11:22;;;;;;;;;8.00;8.00;;;;;29.63;44.40;101508.13;5098100;27;45347;-79
2023/09/08 09:13:47;;;;;;;;;7.00;7.00;;;;;29.65;44.03;101511.41;5116253;27;45420;-79
2023/09/08 09:16:12;;;;;;;;;9.00;8.00;;;;;29.64;44.26;101504.38;5096949;27;45648;-78
2023/09/08 09:18:57;;;;;;;;;5.33;5.33;;;;;29.68;44.39;101502.94;5097501;27;45477;-79
2023/09/08 09:21:23;;;;;;;;;9.33;8.00;;;;;29.54;44.71;101485.28;5116011;27;45365;-79
2023/09/08 09:23:49;;;;;;;;;7.00;7.00;;;;;29.67;44.13;101497.78;5115838;27;45411;-79
2023/09/08 09:26:24;;;;;;;;;7.00;7.00;;;;;29.70;44.24;101500.84;5115274;27;45612;-79
2023/09/08 09:28:52;;;;;;;;;6.67;6.67;;;;;29.65;44.35;101492.63;5115265;27;45323;-78
2023/09/08 09:31:18;;;;;;;;;9.00;7.33;;;;;29.70;44.40;101500.84;5115769;27;45371;-78
2023/09/08 09:33:43;;;;;;;;;9.67;8.67;;;;;29.68;44.57;101502.94;5115418;27;45389;-79
2023/09/08 09:36:09;;;;;;;;;7.33;7.00;;;;;29.66;44.27;101494.28;5116151;27;45266;-79
2023/09/08 09:38:35;;;;;;;;;10.00;10.00;;;;;29.76;44.46;101506.41;5116064;27;46478;-79
2023/09/08 09:41:00;;;;;;;;;7.00;7.00;;;;;29.71;44.04;101496.31;5097545;27;45573;-79
2023/09/08 09:43:28;;;;;;;;;8.00;8.00;;;;;29.77;44.35;101500.03;5116007;27;45393;-79
2023/09/08 09:45:53;;;;;;;;;8.67;7.00;;;;;29.74;44.54;101502.06;5097356;27;45508;-79
2023/09/08 09:48:20;;;;;;;;;6.00;6.00;;;;;29.73;44.02;101489.72;5115514;27;46413;-79
2023/09/08 09:50:46;;;;;;;;;8.67;6.67;;;;;29.76;44.29;101493.84;5118060;27;45425;-79
2023/09/08 09:53:15;;;;;;;;;9.33;8.67;;;;;29.72;44.50;101488.06;5119238;27;45444;-79
2023/09/08 09:55:42;;;;;;;;;7.33;7.00;;;;;29.79;44.38;101500.63;5119553;27;45364;-79
2023/09/08 09:58:10;;;;;;;;;8.00;8.00;;;;;29.75;44.29;101492.19;5100430;27;45808;-79
2023/09/08 10:00:47;;;;;;;;;7.33;6.67;;;;;29.79;44.52;101498.75;5118574;27;45507;-80
2023/09/08 10:03:13;;;;;;;;;8.00;6.00;;;;;29.75;44.67;101489.50;5119132;27;45387;-79
2023/09/08 10:05:38;;;;;;;;;9.33;9.33;;;;;29.78;44.71;101493.59;5119278;27;45453;-79
2023/09/08 10:08:05;;;;;;;;;6.00;6.00;;;;;29.78;44.47;101490.91;5119020;27;45857;-79
2023/09/08 10:10:32;;;;;;;;;10.00;7.33;;;;;29.74;44.17;101482.50;5119268;27;45358;-79
2023/09/08 10:13:05;;;;;;;;;8.67;8.67;;;;;29.83;44.79;101499.13;5100314;27;45323;-79
2023/09/08 10:15:31;;;;;;;;;9.33;7.67;;;;;29.76;44.55;101482.28;5100470;27;45744;-79
2023/09/08 10:17:57;;;;;;;;;9.00;7.00;;;;;29.82;44.63;101502.88;5117625;27;46227;-78
2023/09/08 10:20:28;;;;;;;;;7.33;7.33;;;;;29.81;44.87;101494.00;5118045;27;45540;-79
2023/09/08 10:23:24;;;;;;;;;5.00;5.00;;;;;29.85;44.71;101494.38;5100597;27;45419;-79
2023/09/08 10:25:56;;;;;;;;;9.33;9.00;;;;;29.86;44.43;101501.38;5113811;27;45572;-79
2023/09/08 10:28:22;;;;;;;;;7.33;6.33;;;;;29.79;44.78;101482.69;5118448;27;46650;-79
2023/09/08 10:30:49;;;;;;;;;0.67;0.33;;;;;29.85;44.70;101483.63;5118849;27;45458;-79
2023/09/08 10:33:15;;;;;;;;;8.67;8.67;;;;;29.86;44.67;101487.97;5118573;27;45254;-79
2023/09/08 10:35:43;;;;;;;;;8.00;8.00;;;;;29.88;44.72;101487.75;5100115;27;45348;-79
2023/09/08 10:38:32;;;;;;;;;7.67;7.67;;;;;29.82;44.40;101479.53;5099599;27;45807;-79
2023/09/08 10:41:15;;;;;;;;;7.67;7.67;;;;;29.89;44.69;101486.72;5117532;27;45576;-79
2023/09/08 10:43:56;;;;;;;;;8.67;7.00;;;;;29.85;45.06;101489.84;5118152;27;45324;-79
2023/09/08 10:46:23;;;;;;;;;8.00;7.33;;;;;29.88;44.64;101493.09;5117620;27;45393;-80
2023/09/08 10:48:48;;;;;;;;;6.00;6.00;;;;;29.81;44.94;101483.28;5116921;27;46697;-77
2023/09/08 10:51:14;;;;;;;;;7.67;7.33;;;;;29.90;44.83;101488.38;5118559;27;45312;-79
2023/09/08 10:53:40;;;;;;;;;8.00;7.00;;;;;29.91;44.80;101487.31;5110343;27;45455;-75
2023/09/08 10:56:06;;;;;;;;;10.00;8.33;;;;;29.89;45.10;101478.66;5097494;27;45465;-75
2023/09/08 10:58:35;;;;;;;;;9.33;6.33;;;;;29.85;44.96;101476.41;5101137;27;45412;-75
2023/09/08 11:01:01;;;;;;;;;8.00;8.00;;;;;29.94;45.07;101481.50;5087426;27;45678;-75
2023/09/08 11:03:41;;;;;;;;;7.00;7.00;;;;;29.93;45.44;101472.63;5112510;27;45520;-75
2023/09/08 11:06:07;;;;;;;;;7.67;7.67;;;;;29.93;45.38;101471.81;5117773;27;45312;-74
2023/09/08 11:08:34;;;;;;;;;9.00;7.33;;;;;29.89;45.85;101466.09;5117492;27;45681;-75
2023/09/08 11:11:02;;;;;;;;;8.00;8.00;;;;;29.93;45.75;101472.63;5104565;27;45278;-74
2023/09/08 11:13:28;;;;;;;;;9.00;8.67;;;;;29.89;45.46;101460.72;5116812;27;45548;-75
2023/09/08 11:15:54;;;;;;;;;9.00;6.33;;;;;29.96;45.49;101466.84;5117726;27;45512;-75
2023/09/08 11:18:30;;;;;;;;;10.00;9.00;;;;;29.96;45.55;101469.53;5121016;27;45636;-75
2023/09/08 11:20:56;;;;;;;;;7.67;6.67;;;;;29.99;45.61;101467.44;5123744;27;45381;-75
2023/09/08 11:23:23;;;;;;;;;9.33;7.00;;;;;29.98;45.69;101452.41;5117663;27;45320;-74